Aviation Digital Data Service (ADDS)

Output produced by METARs form (0511 UTC 19 February 2019)
found at http://www.aviationweather.gov/metar/data/
 
METAR text: RJSH 172224Z 26017G27KT 9999 FEW020 SCT030 BKN050 03/M05 Q1016 RMK 1CU020 3CU030 6SC050 A3002
Conditions at: RJSH (HACHINOHE (JMSDF, JP) observed 2224 UTC 17 February 2019
Temperature: 3.0°C (37°F)
Dewpoint: -5.0°C (23°F) [RH = 56%]
Pressure (altimeter): 30.00 inches Hg (1016.0 mb)
Winds: from the W (260 degrees) at 20 MPH (17 knots; 8.7 m/s)
gusting to 31 MPH (27 knots; 13.9 m/s)
Visibility: 6 or more miles (10+ km)
Ceiling: 5000 feet AGL
Clouds: few clouds at 2000 feet AGL
scattered clouds at 3000 feet AGL
broken clouds at 5000 feet AGL
Weather: no significant weather observed at this time